N511KG KBDL-KBOS
Flight info
| Callsign | N511KG |
|---|---|
| Flight time | N/A |
| Altitude | VFR/005 |
| Route | |
| Aircraft | C208/L-VGD/C |
Departure
| Time | 2026-04-30 02:33 |
|---|---|
| Airport | Bradley International Airport (KBDL) |
Arrival
| Time | N/A |
|---|---|
| Airport | Boston Logan International Airport (KBOS) |
| Time | Latitude | Longitude | Altitude | Speed | Heading |
|---|---|---|---|---|---|
| 2026-04-30 02:27 | 41.93837 | -72.68552 | 130 ft | 30 kts | 42° |
| 2026-04-30 02:27 | 41.94016 | -72.68334 | 182 ft | 38 kts | 42° |
| 2026-04-30 02:28 | 41.94217 | -72.68091 | 188 ft | 37 kts | 42° |
| 2026-04-30 02:28 | 41.94396 | -72.67862 | 181 ft | 36 kts | 44° |
| 2026-04-30 02:28 | 41.94556 | -72.67651 | 177 ft | 28 kts | 43° |
| 2026-04-30 02:28 | 41.94674 | -72.67496 | 175 ft | 18 kts | 44° |
| 2026-04-30 02:29 | 41.94753 | -72.67395 | 178 ft | 18 kts | 44° |
| 2026-04-30 02:29 | 41.94870 | -72.67242 | 177 ft | 27 kts | 44° |
| 2026-04-30 02:29 | 41.94958 | -72.67136 | 178 ft | 0 kts | 20° |
| 2026-04-30 02:31 | 41.94959 | -72.67136 | 178 ft | 0 kts | 19° |
| 2026-04-30 02:31 | 41.94972 | -72.67134 | 178 ft | 10 kts | 357° |
| 2026-04-30 02:32 | 41.95044 | -72.67247 | 177 ft | 13 kts | 246° |
| 2026-04-30 02:32 | 41.94931 | -72.67397 | 176 ft | 44 kts | 224° |
| 2026-04-30 02:32 | 41.94567 | -72.67872 | 191 ft | 97 kts | 222° |
| 2026-04-30 02:32 | 41.94038 | -72.68600 | 374 ft | 118 kts | 221° |
| 2026-04-30 02:33 | 41.93401 | -72.69417 | 553 ft | 131 kts | 219° |
| 2026-04-30 02:33 | 41.92739 | -72.70268 | 816 ft | 134 kts | 221° |
| 2026-04-30 02:33 | 41.92100 | -72.71209 | 1018 ft | 142 kts | 223° |
| 2026-04-30 02:33 | 41.91407 | -72.72173 | 1304 ft | 141 kts | 223° |
| 2026-04-30 02:34 | 41.90766 | -72.73134 | 1662 ft | 136 kts | 223° |
| 2026-04-30 02:34 | 41.90096 | -72.74093 | 1713 ft | 151 kts | 223° |
| 2026-04-30 02:34 | 41.89320 | -72.75166 | 1549 ft | 160 kts | 223° |
| 2026-04-30 02:34 | 41.88597 | -72.76157 | 1441 ft | 136 kts | 222° |
| 2026-04-30 02:35 | 41.87987 | -72.77000 | 1524 ft | 116 kts | 221° |
| 2026-04-30 02:35 | 41.87463 | -72.77721 | 1587 ft | 100 kts | 213° |
| 2026-04-30 02:35 | 41.86868 | -72.77670 | 1673 ft | 97 kts | 137° |
| 2026-04-30 02:35 | 41.86786 | -72.76683 | 1607 ft | 118 kts | 90° |
| 2026-04-30 02:36 | 41.86898 | -72.75581 | 1599 ft | 121 kts | 88° |
| 2026-04-30 02:36 | 41.87050 | -72.74469 | 1542 ft | 123 kts | 85° |
| 2026-04-30 02:36 | 41.87247 | -72.73307 | 1555 ft | 131 kts | 73° |
| 2026-04-30 02:36 | 41.87608 | -72.72174 | 1570 ft | 136 kts | 71° |
| 2026-04-30 02:37 | 41.87991 | -72.70987 | 1599 ft | 141 kts | 71° |
| 2026-04-30 02:37 | 41.88377 | -72.69763 | 1619 ft | 144 kts | 72° |
| 2026-04-30 02:37 | 41.88756 | -72.68504 | 1577 ft | 147 kts | 73° |
| 2026-04-30 02:37 | 41.89154 | -72.67146 | 1498 ft | 166 kts | 73° |
| 2026-04-30 02:38 | 41.89595 | -72.65652 | 1485 ft | 174 kts | 72° |
| 2026-04-30 02:38 | 41.90040 | -72.64149 | 1556 ft | 174 kts | 71° |
| 2026-04-30 02:38 | 41.90490 | -72.62629 | 1558 ft | 176 kts | 72° |
| 2026-04-30 02:38 | 41.90941 | -72.61103 | 1556 ft | 177 kts | 72° |
| 2026-04-30 02:39 | 41.91391 | -72.59566 | 1543 ft | 176 kts | 72° |
| 2026-04-30 02:39 | 41.91828 | -72.58082 | 1529 ft | 167 kts | 71° |
| 2026-04-30 02:39 | 41.92242 | -72.56642 | 1545 ft | 164 kts | 73° |
| 2026-04-30 02:39 | 41.92531 | -72.55171 | 1614 ft | 163 kts | 79° |
| 2026-04-30 02:40 | 41.92828 | -72.53702 | 1656 ft | 163 kts | 78° |
| 2026-04-30 02:40 | 41.93113 | -72.52219 | 1658 ft | 166 kts | 79° |
| 2026-04-30 02:40 | 41.93408 | -72.50715 | 1708 ft | 164 kts | 78° |
| 2026-04-30 02:40 | 41.93702 | -72.49267 | 1890 ft | 158 kts | 78° |
| 2026-04-30 02:41 | 41.93989 | -72.47852 | 2057 ft | 155 kts | 79° |
| 2026-04-30 02:41 | 41.94264 | -72.46464 | 2228 ft | 153 kts | 78° |
| 2026-04-30 02:41 | 41.94523 | -72.45077 | 2415 ft | 153 kts | 79° |
| 2026-04-30 02:41 | 41.94702 | -72.43683 | 2586 ft | 150 kts | 90° |
| 2026-04-30 02:42 | 41.94752 | -72.42296 | 2764 ft | 148 kts | 92° |
| 2026-04-30 02:42 | 41.94761 | -72.40912 | 2957 ft | 148 kts | 95° |
| 2026-04-30 02:42 | 41.94755 | -72.39606 | 3408 ft | 130 kts | 94° |
| 2026-04-30 02:42 | 41.94758 | -72.38461 | 3921 ft | 115 kts | 94° |
| 2026-04-30 02:43 | 41.94765 | -72.37451 | 4417 ft | 101 kts | 95° |
| 2026-04-30 02:43 | 41.94775 | -72.36596 | 4897 ft | 82 kts | 96° |
| 2026-04-30 02:43 | 41.94796 | -72.35855 | 5168 ft | 81 kts | 92° |
| 2026-04-30 02:43 | 41.94812 | -72.35102 | 5436 ft | 77 kts | 94° |
| 2026-04-30 02:44 | 41.94822 | -72.34351 | 5586 ft | 91 kts | 91° |
| 2026-04-30 02:44 | 41.94811 | -72.33371 | 5625 ft | 119 kts | 94° |
| 2026-04-30 02:44 | 41.94785 | -72.32188 | 5766 ft | 134 kts | 92° |
| 2026-04-30 02:44 | 41.94775 | -72.30847 | 5738 ft | 156 kts | 92° |
| 2026-04-30 02:45 | 41.94772 | -72.29312 | 5653 ft | 170 kts | 91° |
| 2026-04-30 02:45 | 41.94780 | -72.27660 | 5622 ft | 182 kts | 91° |
| 2026-04-30 02:45 | 41.94793 | -72.25993 | 5896 ft | 176 kts | 90° |
| 2026-04-30 02:45 | 41.94810 | -72.24362 | 6161 ft | 171 kts | 90° |
| 2026-04-30 02:46 | 41.94827 | -72.22799 | 6410 ft | 164 kts | 90° |
| 2026-04-30 02:46 | 41.94842 | -72.21293 | 6641 ft | 159 kts | 91° |
| 2026-04-30 02:46 | 41.94853 | -72.19822 | 6879 ft | 156 kts | 91° |
| 2026-04-30 02:46 | 41.94863 | -72.18332 | 6946 ft | 165 kts | 91° |
| 2026-04-30 02:47 | 41.94873 | -72.16754 | 6964 ft | 172 kts | 91° |
| 2026-04-30 02:47 | 41.94884 | -72.15123 | 6988 ft | 177 kts | 91° |
| 2026-04-30 02:47 | 41.94893 | -72.13453 | 7017 ft | 180 kts | 91° |
| 2026-04-30 02:47 | 41.94904 | -72.11769 | 7040 ft | 181 kts | 91° |
| 2026-04-30 02:48 | 41.94916 | -72.10091 | 7065 ft | 177 kts | 91° |
| 2026-04-30 02:48 | 41.94928 | -72.08450 | 7071 ft | 174 kts | 91° |
| 2026-04-30 02:48 | 41.94939 | -72.06828 | 7074 ft | 173 kts | 92° |
| 2026-04-30 02:48 | 41.94948 | -72.05220 | 7071 ft | 172 kts | 91° |
| 2026-04-30 02:49 | 41.94957 | -72.03619 | 7076 ft | 171 kts | 90° |
| 2026-04-30 02:49 | 41.94966 | -72.02020 | 7079 ft | 172 kts | 91° |
| 2026-04-30 02:49 | 41.94973 | -72.00415 | 7077 ft | 172 kts | 91° |
| 2026-04-30 02:49 | 41.94981 | -71.98804 | 7081 ft | 173 kts | 91° |
| 2026-04-30 02:50 | 41.94990 | -71.97192 | 7088 ft | 173 kts | 91° |
| 2026-04-30 02:50 | 41.94998 | -71.95579 | 7083 ft | 172 kts | 91° |
| 2026-04-30 02:50 | 41.95006 | -71.93970 | 7084 ft | 172 kts | 91° |
| 2026-04-30 02:50 | 41.95013 | -71.92362 | 7084 ft | 172 kts | 92° |
| 2026-04-30 02:51 | 41.95020 | -71.90753 | 7075 ft | 172 kts | 92° |
| 2026-04-30 02:51 | 41.95028 | -71.89148 | 7080 ft | 171 kts | 92° |
| 2026-04-30 02:51 | 41.95036 | -71.87554 | 7085 ft | 171 kts | 92° |
| 2026-04-30 02:51 | 41.95044 | -71.85959 | 7085 ft | 171 kts | 92° |
| 2026-04-30 02:52 | 41.95050 | -71.84362 | 7087 ft | 171 kts | 92° |
| 2026-04-30 02:52 | 41.95055 | -71.82757 | 7095 ft | 172 kts | 92° |
| 2026-04-30 02:52 | 41.95060 | -71.81153 | 7088 ft | 171 kts | 92° |
| 2026-04-30 02:52 | 41.95065 | -71.79566 | 7087 ft | 170 kts | 92° |
| 2026-04-30 02:53 | 41.95072 | -71.77972 | 7087 ft | 170 kts | 92° |
| 2026-04-30 02:53 | 41.95078 | -71.76383 | 7091 ft | 170 kts | 92° |
| 2026-04-30 02:53 | 41.95082 | -71.74793 | 7091 ft | 170 kts | 92° |
| 2026-04-30 02:53 | 41.95087 | -71.73202 | 7089 ft | 170 kts | 92° |
| 2026-04-30 02:54 | 41.95091 | -71.71615 | 7088 ft | 170 kts | 92° |
| 2026-04-30 02:54 | 41.95096 | -71.70032 | 7104 ft | 170 kts | 92° |
| 2026-04-30 02:54 | 41.95101 | -71.68443 | 7102 ft | 170 kts | 93° |
| 2026-04-30 02:54 | 41.95103 | -71.66861 | 7103 ft | 170 kts | 92° |
| 2026-04-30 02:55 | 41.95107 | -71.65271 | 7106 ft | 170 kts | 92° |
| 2026-04-30 02:55 | 41.95112 | -71.63680 | 7105 ft | 170 kts | 92° |
| 2026-04-30 02:55 | 41.95117 | -71.62091 | 7102 ft | 170 kts | 92° |
| 2026-04-30 02:55 | 41.95119 | -71.60500 | 7099 ft | 170 kts | 93° |
| 2026-04-30 02:56 | 41.95120 | -71.59984 | 7098 ft | 170 kts | 93° |